createdAt,value
2024-05-09T00:00:47.461Z,16.77
2024-05-09T00:03:14.824Z,17.50
2024-05-09T00:05:42.792Z,16.33
2024-05-09T00:08:10.556Z,17.65
2024-05-09T00:10:39.469Z,17.70
2024-05-09T00:13:08.278Z,16.67
2024-05-09T00:15:37.969Z,13.07
2024-05-09T00:18:06.834Z,16.80
2024-05-09T00:20:38.961Z,16.60
2024-05-09T00:23:12.108Z,14.77
2024-05-09T00:25:40.225Z,15.20
2024-05-09T00:28:07.239Z,17.42
2024-05-09T00:30:36.612Z,13.35
2024-05-09T00:33:08.761Z,14.02
2024-05-09T00:35:41.611Z,15.90
2024-05-09T00:38:12.828Z,16.08
2024-05-09T00:40:42.379Z,18.50
2024-05-09T00:43:14.798Z,16.60
2024-05-09T00:45:48.755Z,17.60
2024-05-09T00:48:18.605Z,17.13
2024-05-09T00:50:47.822Z,19.70
2024-05-09T00:53:15.858Z,16.85
2024-05-09T00:55:43.224Z,16.92
2024-05-09T00:58:13.315Z,16.00
2024-05-09T01:00:41.494Z,13.65
2024-05-09T01:03:13.550Z,13.10
2024-05-09T01:08:09.989Z,15.13
2024-05-09T01:10:42.857Z,15.63
2024-05-09T01:13:14.177Z,14.90
2024-05-09T01:15:41.326Z,16.05
2024-05-09T01:18:13.466Z,15.02
2024-05-09T01:20:43.934Z,14.52
2024-05-09T01:23:14.508Z,13.75
2024-05-09T01:25:43.502Z,17.10
2024-05-09T01:28:10.822Z,15.07
2024-05-09T01:30:38.613Z,15.27
2024-05-09T01:33:10.377Z,14.02
2024-05-09T01:35:41.445Z,12.15
2024-05-09T01:38:09.997Z,11.65
2024-05-09T01:40:40.374Z,12.18
2024-05-09T01:43:11.686Z,11.85
2024-05-09T01:45:40.071Z,11.82
2024-05-09T01:48:08.455Z,11.52
2024-05-09T01:50:39.351Z,12.32
2024-05-09T01:53:10.267Z,14.50
2024-05-09T01:55:37.595Z,17.42
2024-05-09T01:58:04.827Z,14.77
2024-05-09T02:00:39.738Z,14.30
2024-05-09T02:03:11.524Z,17.45
2024-05-09T02:05:41.805Z,11.00
2024-05-09T02:08:12.942Z,14.52
2024-05-09T02:10:40.066Z,14.68
2024-05-09T02:13:08.155Z,12.55
2024-05-09T02:15:35.278Z,15.93
2024-05-09T02:18:04.883Z,13.98
2024-05-09T02:20:36.237Z,13.82
2024-05-09T02:23:06.417Z,14.38
2024-05-09T02:25:34.137Z,14.35
2024-05-09T02:28:06.079Z,12.20
2024-05-09T02:30:40.265Z,13.57
2024-05-09T02:33:13.471Z,11.95
2024-05-09T02:38:12.095Z,11.75
2024-05-09T02:40:40.255Z,10.93
2024-05-09T02:43:12.668Z,10.15
2024-05-09T02:45:40.647Z,12.27
2024-05-09T02:48:10.634Z,12.30
2024-05-09T02:50:39.936Z,11.85
2024-05-09T02:53:08.597Z,12.10
2024-05-09T02:55:36.488Z,12.40
2024-05-09T02:58:03.639Z,10.43
2024-05-09T03:00:39.415Z,11.70
2024-05-09T03:03:15.471Z,11.27
2024-05-09T03:05:44.404Z,11.00
2024-05-09T03:08:12.022Z,11.00
2024-05-09T03:10:40.397Z,8.98
2024-05-09T03:13:13.573Z,9.70
2024-05-09T03:15:42.751Z,12.13
2024-05-09T03:18:10.799Z,10.13
2024-05-09T03:20:39.166Z,11.60
2024-05-09T03:23:10.433Z,10.35
2024-05-09T03:25:40.202Z,10.68
2024-05-09T03:28:07.509Z,12.30
2024-05-09T03:30:41.979Z,10.15
2024-05-09T03:35:43.920Z,8.68
2024-05-09T03:38:13.604Z,12.82
2024-05-09T03:40:50.204Z,11.23
2024-05-09T03:43:18.120Z,10.10
2024-05-09T03:45:45.508Z,12.05
2024-05-09T03:48:13.218Z,10.32
2024-05-09T03:50:40.754Z,11.02
2024-05-09T03:53:13.422Z,10.45
2024-05-09T03:55:40.863Z,11.02
2024-05-09T03:58:08.468Z,9.50
2024-05-09T04:00:39.035Z,7.97
2024-05-09T04:03:11.833Z,10.30
2024-05-09T04:05:41.914Z,10.25
2024-05-09T04:08:10.683Z,11.65
2024-05-09T04:10:43.262Z,10.45
2024-05-09T04:13:13.021Z,10.30
2024-05-09T04:15:42.272Z,9.35
2024-05-09T04:18:09.547Z,10.38
2024-05-09T04:20:39.731Z,8.80
2024-05-09T04:23:11.682Z,10.32
2024-05-09T04:25:41.499Z,10.60
2024-05-09T04:28:08.610Z,11.60
2024-05-09T04:30:40.546Z,8.35
2024-05-09T04:33:13.300Z,11.68
2024-05-09T04:35:45.312Z,10.07
2024-05-09T04:38:15.558Z,8.23
2024-05-09T04:40:43.092Z,8.73
2024-05-09T04:43:18.612Z,9.07
2024-05-09T04:45:45.842Z,9.48
2024-05-09T04:48:13.277Z,8.27
2024-05-09T04:50:40.591Z,9.80
2024-05-09T04:53:15.604Z,7.85
2024-05-09T04:55:45.479Z,7.93
2024-05-09T04:58:12.600Z,10.05
2024-05-09T05:00:43.086Z,9.65
2024-05-09T05:03:13.733Z,12.65
2024-05-09T05:05:43.587Z,8.95
2024-05-09T05:08:12.864Z,10.40
2024-05-09T05:10:40.797Z,8.50
2024-05-09T05:13:18.182Z,12.48
2024-05-09T05:15:46.760Z,8.38
2024-05-09T05:18:15.269Z,10.88
2024-05-09T05:20:42.678Z,9.85
2024-05-09T05:23:14.373Z,10.90
2024-05-09T05:25:42.172Z,8.52
2024-05-09T05:28:11.751Z,8.00
2024-05-09T05:30:39.043Z,8.25
2024-05-09T05:33:06.688Z,8.45
2024-05-09T05:35:34.696Z,8.05
2024-05-09T05:38:02.412Z,9.68
2024-05-09T05:40:36.618Z,9.27
2024-05-09T05:43:05.886Z,8.70
2024-05-09T05:45:33.176Z,12.32
2024-05-09T05:48:02.487Z,9.75
2024-05-09T05:50:35.538Z,7.28
2024-05-09T05:53:09.124Z,9.88
2024-05-09T05:55:37.449Z,7.55
2024-05-09T05:58:04.778Z,8.02
2024-05-09T06:00:38.378Z,7.30
2024-05-09T06:03:10.493Z,7.18
2024-05-09T06:05:43.992Z,8.13
2024-05-09T06:08:11.665Z,8.32
2024-05-09T06:10:40.769Z,6.40
2024-05-09T06:13:12.200Z,7.20
2024-05-09T06:15:40.537Z,8.07
2024-05-09T06:18:08.732Z,6.75
2024-05-09T06:20:40.109Z,6.88
2024-05-09T06:23:10.617Z,7.38
2024-05-09T06:25:38.152Z,5.65
2024-05-09T06:28:07.711Z,5.38
2024-05-09T06:30:40.407Z,6.38
2024-05-09T06:33:13.538Z,6.22
2024-05-09T06:35:46.004Z,4.65
2024-05-09T06:38:15.599Z,7.57
2024-05-09T06:40:44.118Z,6.70
2024-05-09T06:43:19.386Z,6.88
2024-05-09T06:45:52.568Z,8.02
2024-05-09T06:48:20.318Z,6.85
2024-05-09T06:50:48.954Z,6.05
2024-05-09T06:53:21.343Z,5.55
2024-05-09T06:55:50.736Z,8.63
2024-05-09T06:58:22.531Z,7.95
2024-05-09T07:00:49.665Z,5.60
2024-05-09T07:03:19.816Z,8.05
2024-05-09T07:05:48.478Z,6.53
2024-05-09T07:08:16.686Z,9.05
2024-05-09T07:10:46.479Z,7.60
2024-05-09T07:13:14.773Z,7.32
2024-05-09T07:15:44.766Z,7.80
2024-05-09T07:18:17.956Z,6.45
2024-05-09T07:20:46.906Z,5.95
2024-05-09T07:23:14.591Z,6.90
2024-05-09T07:25:41.970Z,6.22
2024-05-09T07:28:18.614Z,6.60
2024-05-09T07:30:45.918Z,6.22
2024-05-09T07:33:17.731Z,8.30
2024-05-09T07:38:12.005Z,6.90
2024-05-09T07:40:40.481Z,8.18
2024-05-09T07:43:08.476Z,5.30
2024-05-09T07:53:37.185Z,6.97
2024-05-09T07:56:01.534Z,6.10
2024-05-09T07:58:28.910Z,6.82
2024-05-09T08:01:30.598Z,5.47
2024-05-09T08:03:57.886Z,8.55
2024-05-09T08:06:25.759Z,8.88
2024-05-09T08:08:55.322Z,6.88
2024-05-09T08:11:23.959Z,5.95
2024-05-09T08:13:51.143Z,6.53
2024-05-09T08:16:20.629Z,8.07
2024-05-09T08:18:49.135Z,8.20
2024-05-09T08:21:16.234Z,6.57
2024-05-09T08:23:43.288Z,7.45
2024-05-09T08:26:10.780Z,7.57
2024-05-09T08:28:37.811Z,7.15
2024-05-09T08:31:06.963Z,9.40
2024-05-09T08:33:34.623Z,8.55
2024-05-09T08:36:04.432Z,8.65
2024-05-09T08:38:33.699Z,5.30
2024-05-09T08:41:02.164Z,7.70
2024-05-09T08:43:33.759Z,8.30
2024-05-09T08:46:00.856Z,8.63
2024-05-09T08:48:28.120Z,8.35
2024-05-09T08:50:59.506Z,7.07
2024-05-09T08:53:26.642Z,7.72
2024-05-09T08:55:53.703Z,7.22
2024-05-09T08:58:20.925Z,8.77
2024-05-09T09:00:48.876Z,7.05
2024-05-09T09:03:18.559Z,8.57
2024-05-09T09:05:53.393Z,8.18
2024-05-09T09:08:22.562Z,9.65
2024-05-09T09:10:53.039Z,8.85
2024-05-09T09:13:20.351Z,9.68
2024-05-09T09:15:48.407Z,8.98
2024-05-09T09:18:16.224Z,7.60
2024-05-09T09:20:46.017Z,10.63
2024-05-09T09:23:15.269Z,9.75
2024-05-09T09:25:42.636Z,8.35
2024-05-09T09:28:12.474Z,8.98
2024-05-09T09:30:42.627Z,8.73
2024-05-09T09:33:12.608Z,7.65
2024-05-09T09:35:42.375Z,7.43
2024-05-09T09:38:11.556Z,7.95
2024-05-09T09:40:45.785Z,8.88
2024-05-09T09:43:20.600Z,9.35
2024-05-09T09:45:51.952Z,8.48
2024-05-09T09:48:20.565Z,8.98
2024-05-09T09:50:47.936Z,9.15
2024-05-09T09:53:15.011Z,8.10
2024-05-09T09:55:44.584Z,8.13
2024-05-09T09:58:13.942Z,8.57
2024-05-09T10:00:41.900Z,8.38
2024-05-09T10:03:09.386Z,8.63
2024-05-09T10:05:36.762Z,9.25
2024-05-09T10:08:08.733Z,8.90
2024-05-09T10:10:36.132Z,8.50
2024-05-09T10:13:04.162Z,9.57
2024-05-09T10:15:50.822Z,10.05
2024-05-09T10:18:22.825Z,8.77
2024-05-09T10:23:29.241Z,9.90
2024-05-09T10:25:56.379Z,9.38
2024-05-09T10:28:32.738Z,10.60
2024-05-09T10:31:07.259Z,9.20
2024-05-09T10:33:50.646Z,9.70
2024-05-09T10:36:22.877Z,10.38
2024-05-09T10:38:50.367Z,8.85
2024-05-09T10:41:17.739Z,8.65
2024-05-09T10:43:44.890Z,9.10
2024-05-09T10:46:12.436Z,9.27
2024-05-09T10:48:40.193Z,10.05
2024-05-09T10:51:07.303Z,11.00
2024-05-09T10:53:46.959Z,11.68
2024-05-09T10:56:14.510Z,8.18
2024-05-09T10:58:41.656Z,8.48
2024-05-09T11:01:10.034Z,9.15
2024-05-09T11:03:38.180Z,8.35
2024-05-09T11:06:06.521Z,10.23
2024-05-09T11:08:36.274Z,8.20
2024-05-09T11:11:08.105Z,10.25
2024-05-09T11:13:37.079Z,7.75
2024-05-09T11:16:07.365Z,7.85
2024-05-09T11:18:39.075Z,8.68
2024-05-09T11:21:12.393Z,10.52
2024-05-09T11:23:39.757Z,7.90
2024-05-09T11:26:15.210Z,14.18
2024-05-09T11:28:45.798Z,9.48
2024-05-09T11:31:12.880Z,9.70
2024-05-09T11:33:47.977Z,10.40
2024-05-09T11:36:17.631Z,11.48
2024-05-09T11:38:44.667Z,10.63
2024-05-09T11:41:17.506Z,8.65
2024-05-09T11:43:44.597Z,8.88
2024-05-09T11:46:13.992Z,10.85
2024-05-09T11:48:41.263Z,10.93
2024-05-09T11:51:08.457Z,9.27
2024-05-09T11:53:35.550Z,9.63
2024-05-09T11:56:02.809Z,10.35
2024-05-09T11:58:34.412Z,7.22
2024-05-09T12:01:04.502Z,7.35
2024-05-09T12:03:34.456Z,9.23
2024-05-09T12:06:01.780Z,8.63
2024-05-09T12:08:28.859Z,8.10
2024-05-09T12:10:58.537Z,6.93
2024-05-09T12:13:25.916Z,6.35
2024-05-09T12:15:54.194Z,5.82
2024-05-09T12:18:21.395Z,5.47
2024-05-09T12:20:48.462Z,5.80
2024-05-09T12:23:15.558Z,5.40
2024-05-09T12:25:44.840Z,6.25
2024-05-09T12:28:11.924Z,6.35
2024-05-09T12:30:41.598Z,6.65
2024-05-09T12:33:11.262Z,6.25
2024-05-09T12:35:39.447Z,5.90
2024-05-09T12:38:06.533Z,6.30
2024-05-09T12:40:37.036Z,5.03
2024-05-09T12:43:11.773Z,5.07
2024-05-09T12:45:40.035Z,5.57
2024-05-09T12:48:12.139Z,5.43
2024-05-09T12:50:42.377Z,7.85
2024-05-09T12:53:11.763Z,6.18
2024-05-09T12:55:45.136Z,6.93
2024-05-09T12:58:22.118Z,5.95
2024-05-09T13:00:50.647Z,6.60
2024-05-09T13:03:17.886Z,5.55
2024-05-09T13:05:45.786Z,7.35
2024-05-09T13:08:15.618Z,7.05
2024-05-09T13:10:45.176Z,6.53
2024-05-09T13:13:12.619Z,7.88
2024-05-09T13:15:40.025Z,6.95
2024-05-09T13:18:07.441Z,5.82
2024-05-09T13:20:36.311Z,7.15
2024-05-09T13:23:07.893Z,6.75
2024-05-09T13:25:36.343Z,5.30
2024-05-09T13:28:04.356Z,6.65
2024-05-09T13:30:39.290Z,6.18
2024-05-09T13:33:13.012Z,5.43
2024-05-09T13:35:47.724Z,4.75
2024-05-09T13:38:18.413Z,5.72
2024-05-09T13:40:45.901Z,4.93
2024-05-09T13:43:15.399Z,6.20
2024-05-09T13:45:42.832Z,7.13
2024-05-09T13:48:10.362Z,5.47
2024-05-09T13:50:39.770Z,7.22
2024-05-09T13:53:08.051Z,6.57
2024-05-09T13:55:37.849Z,5.88
2024-05-09T13:58:05.323Z,4.70
2024-05-09T14:00:44.309Z,6.63
2024-05-09T14:03:19.759Z,5.82
2024-05-09T14:05:49.778Z,5.20
2024-05-09T14:08:19.791Z,5.20
2024-05-09T14:10:47.581Z,6.05
2024-05-09T14:13:15.165Z,5.32
2024-05-09T14:15:42.463Z,6.22
2024-05-09T14:18:13.084Z,6.70
2024-05-09T14:20:41.710Z,7.05
2024-05-09T14:23:08.833Z,6.30
2024-05-09T14:25:42.396Z,6.88
2024-05-09T14:28:10.992Z,7.38
2024-05-09T14:30:39.076Z,5.60
2024-05-09T14:33:07.830Z,6.15
2024-05-09T14:35:37.455Z,5.75
2024-05-09T14:38:04.903Z,6.18
2024-05-09T14:40:43.011Z,5.97
2024-05-09T14:43:12.059Z,8.65
2024-05-09T14:45:39.705Z,7.97
2024-05-09T14:48:07.684Z,7.82
2024-05-09T14:50:39.318Z,5.57
2024-05-09T14:53:08.288Z,6.00
2024-05-09T14:55:42.622Z,8.07
2024-05-09T14:58:11.314Z,6.70
2024-05-09T15:00:46.241Z,5.53
2024-05-09T15:03:17.990Z,5.00
2024-05-09T15:05:45.519Z,4.78
2024-05-09T15:08:12.686Z,6.28
2024-05-09T15:10:40.114Z,5.93
2024-05-09T15:13:09.809Z,5.50
2024-05-09T15:15:38.543Z,7.20
2024-05-09T15:18:06.282Z,7.15
2024-05-09T15:20:37.393Z,6.13
2024-05-09T15:23:06.264Z,9.07
2024-05-09T15:25:34.212Z,7.00
2024-05-09T15:28:04.055Z,6.70
2024-05-09T15:30:33.460Z,5.40
2024-05-09T15:33:05.031Z,5.82
2024-05-09T15:35:33.535Z,5.20
2024-05-09T15:38:00.628Z,6.47
2024-05-09T15:40:36.208Z,6.20
2024-05-09T15:43:07.652Z,8.70
2024-05-09T15:45:35.293Z,6.78
2024-05-09T15:48:02.834Z,7.15
2024-05-09T15:50:37.125Z,5.88
2024-05-09T15:53:11.003Z,7.40
2024-05-09T15:55:38.988Z,6.63
2024-05-09T15:58:07.101Z,5.93
2024-05-09T16:00:39.172Z,6.85
2024-05-09T16:03:13.704Z,10.73
2024-05-09T16:05:44.024Z,6.38
2024-05-09T16:08:12.039Z,6.38
2024-05-09T16:10:48.271Z,6.72
2024-05-09T16:13:16.630Z,9.45
2024-05-09T16:15:44.524Z,6.38
2024-05-09T16:18:11.850Z,6.00
2024-05-09T16:20:42.619Z,5.88
2024-05-09T16:23:11.443Z,6.53
2024-05-09T16:25:39.581Z,8.02
2024-05-09T16:28:09.971Z,7.47
2024-05-09T16:30:41.156Z,4.63
2024-05-09T16:33:09.276Z,5.00
2024-05-09T16:35:39.766Z,5.75
2024-05-09T16:38:09.762Z,6.75
2024-05-09T16:40:41.128Z,7.93
2024-05-09T16:43:12.334Z,5.82
2024-05-09T16:45:40.700Z,4.13
2024-05-09T16:48:08.401Z,4.55
2024-05-09T16:50:36.713Z,5.63
2024-05-09T16:53:05.180Z,5.10
2024-05-09T16:55:33.094Z,8.85
2024-05-09T16:58:00.529Z,6.95
2024-05-09T17:00:38.185Z,6.20
2024-05-09T17:03:10.155Z,7.13
2024-05-09T17:05:40.504Z,4.53
2024-05-09T17:08:10.322Z,5.03
2024-05-09T17:10:39.723Z,7.15
2024-05-09T17:13:08.040Z,5.10
2024-05-09T17:15:40.273Z,7.25
2024-05-09T17:18:10.014Z,5.05
2024-05-09T17:20:37.888Z,7.18
2024-05-09T17:23:12.658Z,5.93
2024-05-09T17:25:40.505Z,6.05
2024-05-09T17:28:10.444Z,7.22
2024-05-09T17:30:39.903Z,10.18
2024-05-09T17:33:11.909Z,10.55
2024-05-09T17:35:46.103Z,10.40
2024-05-09T17:38:15.722Z,13.13
2024-05-09T17:40:42.970Z,8.10
2024-05-09T17:43:10.977Z,7.07
2024-05-09T17:45:41.497Z,5.68
2024-05-09T17:48:10.631Z,5.40
2024-05-09T17:50:39.191Z,5.70
2024-05-09T17:53:06.654Z,4.97
2024-05-09T17:55:36.382Z,5.22
2024-05-09T17:58:04.754Z,5.57
2024-05-09T18:00:38.189Z,6.63
2024-05-09T18:03:12.482Z,6.78
2024-05-09T18:05:44.397Z,7.25
2024-05-09T18:08:12.395Z,6.55
2024-05-09T18:10:41.367Z,7.90
2024-05-09T18:13:12.720Z,5.47
2024-05-09T18:15:40.185Z,7.10
2024-05-09T18:18:08.030Z,7.00
2024-05-09T18:20:42.687Z,6.53
2024-05-09T18:23:16.924Z,8.25
2024-05-09T18:25:48.132Z,7.72
2024-05-09T18:28:16.481Z,7.10
2024-05-09T18:30:44.231Z,7.57
2024-05-09T18:33:12.074Z,9.27
2024-05-09T18:35:41.074Z,7.47
2024-05-09T18:38:11.462Z,8.23
2024-05-09T18:40:40.162Z,7.35
2024-05-09T18:43:09.326Z,7.40
2024-05-09T18:45:37.790Z,10.13
2024-05-09T18:48:06.682Z,6.57
2024-05-09T18:50:39.670Z,7.07
2024-05-09T18:53:08.889Z,9.73
2024-05-09T18:55:39.194Z,8.05
2024-05-09T18:58:06.688Z,9.55
2024-05-09T19:00:37.444Z,9.38
2024-05-09T19:03:12.415Z,8.20
2024-05-09T19:05:45.088Z,10.18
2024-05-09T19:08:15.808Z,6.82
2024-05-09T19:10:52.551Z,10.88
2024-05-09T19:13:27.189Z,7.43
2024-05-09T19:15:54.376Z,10.02
2024-05-09T19:18:23.631Z,9.13
2024-05-09T19:20:50.857Z,9.02
2024-05-09T19:23:17.978Z,16.52
2024-05-09T19:25:47.227Z,10.13
2024-05-09T19:28:14.388Z,9.70
2024-05-09T19:30:42.854Z,7.05
2024-05-09T19:33:12.831Z,9.65
2024-05-09T19:35:43.739Z,10.00
2024-05-09T19:38:14.139Z,10.65
2024-05-09T19:40:41.386Z,8.63
2024-05-09T19:43:08.788Z,8.70
2024-05-09T19:45:36.679Z,9.18
2024-05-09T19:48:04.995Z,23.63
2024-05-09T19:50:40.710Z,8.82
2024-05-09T19:53:11.543Z,8.48
2024-05-09T19:55:41.587Z,15.20
2024-05-09T19:58:11.255Z,9.35
2024-05-09T20:00:41.664Z,7.50
2024-05-09T20:03:11.893Z,7.85
2024-05-09T20:05:41.402Z,9.38
2024-05-09T20:08:10.725Z,9.40
2024-05-09T20:10:40.115Z,11.02
2024-05-09T20:13:08.330Z,13.07
2024-05-09T20:15:38.548Z,9.10
2024-05-09T20:18:08.415Z,9.52
2024-05-09T20:20:39.732Z,9.38
2024-05-09T20:23:12.643Z,9.98
2024-05-09T20:25:40.410Z,9.57
2024-05-09T20:28:07.780Z,10.20
2024-05-09T20:30:37.448Z,9.52
2024-05-09T20:33:07.785Z,9.85
2024-05-09T20:35:36.097Z,9.45
2024-05-09T20:38:04.118Z,11.40
2024-05-09T20:40:37.525Z,12.30
2024-05-09T20:43:07.692Z,10.73
2024-05-09T20:45:35.416Z,15.25
2024-05-09T20:48:02.878Z,11.68
2024-05-09T20:50:37.421Z,13.43
2024-05-09T20:53:18.519Z,14.30
2024-05-09T20:55:47.733Z,15.07
2024-05-09T20:58:17.063Z,12.90
2024-05-09T21:00:46.709Z,13.65
2024-05-09T21:03:17.571Z,13.75
2024-05-09T21:05:45.333Z,12.88
2024-05-09T21:08:12.583Z,13.10
2024-05-09T21:10:42.281Z,12.50
2024-05-09T21:13:09.467Z,14.20
2024-05-09T21:15:41.043Z,12.40
2024-05-09T21:18:08.664Z,13.00
2024-05-09T21:20:38.343Z,11.82
2024-05-09T21:23:05.574Z,10.15
2024-05-09T21:25:34.999Z,9.63
2024-05-09T21:28:02.285Z,9.63
2024-05-09T21:30:40.364Z,11.95
2024-05-09T21:33:11.658Z,10.68
2024-05-09T21:35:41.225Z,13.07
2024-05-09T21:38:08.431Z,13.80
2024-05-09T21:40:40.002Z,10.93
2024-05-09T21:43:07.814Z,11.40
2024-05-09T21:45:35.664Z,10.60
2024-05-09T21:48:06.935Z,10.38
2024-05-09T21:50:40.002Z,11.25
2024-05-09T21:53:12.860Z,10.73
2024-05-09T21:55:40.821Z,11.18
2024-05-09T21:58:08.094Z,9.13
2024-05-09T22:00:38.167Z,10.07
2024-05-09T22:03:10.596Z,9.70
2024-05-09T22:05:41.937Z,9.23
2024-05-09T22:08:11.665Z,7.85
2024-05-09T22:10:38.911Z,6.85
2024-05-09T22:13:09.163Z,7.15
2024-05-09T22:15:40.386Z,6.63
2024-05-09T22:18:09.171Z,8.75
2024-05-09T22:20:44.648Z,7.57
2024-05-09T22:23:18.266Z,6.88
2024-05-09T22:28:14.206Z,7.60
2024-05-09T22:35:00.649Z,8.55
2024-05-09T22:37:27.766Z,8.82
2024-05-09T22:39:54.985Z,9.65
2024-05-09T22:42:24.410Z,6.85
2024-05-09T22:44:51.442Z,8.43
2024-05-09T22:47:18.542Z,8.45
2024-05-09T22:49:45.791Z,7.75
2024-05-09T22:52:18.728Z,9.65
2024-05-09T22:54:45.811Z,14.73
2024-05-09T22:57:12.914Z,12.50
2024-05-09T22:59:40.170Z,15.65
2024-05-09T23:02:09.635Z,15.68
2024-05-09T23:05:09.311Z,11.93
2024-05-09T23:07:36.486Z,12.25
2024-05-09T23:10:05.485Z,8.32
2024-05-09T23:12:35.727Z,8.07
2024-05-09T23:15:05.150Z,8.10
2024-05-09T23:17:32.381Z,8.38
2024-05-09T23:20:02.194Z,7.70
2024-05-09T23:22:32.381Z,8.95
2024-05-09T23:25:04.128Z,8.52
2024-05-09T23:27:31.243Z,7.65
2024-05-09T23:29:58.372Z,9.20
2024-05-09T23:32:25.577Z,8.50
2024-05-09T23:34:55.200Z,9.73
2024-05-09T23:37:22.514Z,9.07
2024-05-09T23:39:51.763Z,8.80
2024-05-09T23:42:20.989Z,9.07
2024-05-09T23:44:48.054Z,9.32
2024-05-09T23:47:17.503Z,10.50
2024-05-09T23:49:44.653Z,10.60
2024-05-09T23:52:11.782Z,9.13
2024-05-09T23:54:41.584Z,10.05
2024-05-09T23:57:10.950Z,9.30
2024-05-09T23:59:38.000Z,7.82
